sensor_id;sensor_type;location;lat;lon;timestamp;P1;durP1;ratioP1;P2;durP2;ratioP2
37001;SDS011;22913;51.910;8.374;2023-04-19T00:01:45;2.97;;;2.73;;
37001;SDS011;22913;51.910;8.374;2023-04-19T00:04:31;3.90;;;3.57;;
37001;SDS011;22913;51.910;8.374;2023-04-19T00:07:17;3.73;;;3.43;;
37001;SDS011;22913;51.910;8.374;2023-04-19T00:10:03;3.87;;;3.10;;
37001;SDS011;22913;51.910;8.374;2023-04-19T00:12:51;5.20;;;4.50;;
37001;SDS011;22913;51.910;8.374;2023-04-19T00:15:37;7.80;;;5.67;;
37001;SDS011;22913;51.910;8.374;2023-04-19T00:18:23;5.43;;;4.40;;
37001;SDS011;22913;51.910;8.374;2023-04-19T00:21:08;4.47;;;4.07;;
37001;SDS011;22913;51.910;8.374;2023-04-19T00:23:54;7.27;;;6.57;;
37001;SDS011;22913;51.910;8.374;2023-04-19T00:26:40;5.23;;;4.73;;
37001;SDS011;22913;51.910;8.374;2023-04-19T00:29:27;4.10;;;3.50;;
37001;SDS011;22913;51.910;8.374;2023-04-19T00:32:12;3.93;;;3.10;;
37001;SDS011;22913;51.910;8.374;2023-04-19T00:34:58;4.13;;;3.63;;
37001;SDS011;22913;51.910;8.374;2023-04-19T00:37:44;3.60;;;3.30;;
37001;SDS011;22913;51.910;8.374;2023-04-19T00:40:30;4.80;;;3.50;;
37001;SDS011;22913;51.910;8.374;2023-04-19T00:43:16;3.40;;;3.10;;
37001;SDS011;22913;51.910;8.374;2023-04-19T00:46:04;3.60;;;3.30;;
37001;SDS011;22913;51.910;8.374;2023-04-19T00:48:49;3.27;;;2.90;;
37001;SDS011;22913;51.910;8.374;2023-04-19T00:51:35;3.47;;;3.20;;
37001;SDS011;22913;51.910;8.374;2023-04-19T00:54:21;3.57;;;3.27;;
37001;SDS011;22913;51.910;8.374;2023-04-19T00:57:11;3.73;;;3.33;;
37001;SDS011;22913;51.910;8.374;2023-04-19T00:59:56;3.30;;;3.00;;
37001;SDS011;22913;51.910;8.374;2023-04-19T01:02:43;4.00;;;3.70;;
37001;SDS011;22913;51.910;8.374;2023-04-19T01:05:29;4.63;;;3.60;;
37001;SDS011;22913;51.910;8.374;2023-04-19T01:08:14;3.57;;;3.27;;
37001;SDS011;22913;51.910;8.374;2023-04-19T01:11:00;3.97;;;3.67;;
37001;SDS011;22913;51.910;8.374;2023-04-19T01:13:46;4.60;;;4.20;;
37001;SDS011;22913;51.910;8.374;2023-04-19T01:16:32;6.40;;;5.80;;
37001;SDS011;22913;51.910;8.374;2023-04-19T01:19:20;5.80;;;5.20;;
37001;SDS011;22913;51.910;8.374;2023-04-19T01:22:06;5.13;;;4.63;;
37001;SDS011;22913;51.910;8.374;2023-04-19T01:24:53;4.97;;;4.50;;
37001;SDS011;22913;51.910;8.374;2023-04-19T01:27:38;3.53;;;3.23;;
37001;SDS011;22913;51.910;8.374;2023-04-19T01:30:24;4.30;;;3.90;;
37001;SDS011;22913;51.910;8.374;2023-04-19T01:33:10;3.97;;;3.67;;
37001;SDS011;22913;51.910;8.374;2023-04-19T01:35:55;3.80;;;3.50;;
37001;SDS011;22913;51.910;8.374;2023-04-19T01:38:41;3.67;;;3.33;;
37001;SDS011;22913;51.910;8.374;2023-04-19T01:41:28;3.53;;;3.23;;
37001;SDS011;22913;51.910;8.374;2023-04-19T01:44:14;3.80;;;3.50;;
37001;SDS011;22913;51.910;8.374;2023-04-19T01:47:00;4.20;;;3.83;;
37001;SDS011;22913;51.910;8.374;2023-04-19T01:49:45;4.27;;;3.87;;
37001;SDS011;22913;51.910;8.374;2023-04-19T01:52:31;4.83;;;3.67;;
37001;SDS011;22913;51.910;8.374;2023-04-19T01:55:17;4.23;;;3.53;;
37001;SDS011;22913;51.910;8.374;2023-04-19T01:58:04;4.03;;;3.70;;
37001;SDS011;22913;51.910;8.374;2023-04-19T02:00:49;4.77;;;3.70;;
37001;SDS011;22913;51.910;8.374;2023-04-19T02:03:35;5.20;;;3.67;;
37001;SDS011;22913;51.910;8.374;2023-04-19T02:06:21;4.67;;;3.70;;
37001;SDS011;22913;51.910;8.374;2023-04-19T02:09:06;4.90;;;4.03;;
37001;SDS011;22913;51.910;8.374;2023-04-19T02:11:52;4.07;;;3.70;;
37001;SDS011;22913;51.910;8.374;2023-04-19T02:14:39;4.03;;;3.70;;
37001;SDS011;22913;51.910;8.374;2023-04-19T02:17:25;3.80;;;3.40;;
37001;SDS011;22913;51.910;8.374;2023-04-19T02:20:10;3.77;;;3.47;;
37001;SDS011;22913;51.910;8.374;2023-04-19T02:22:56;4.30;;;3.50;;
37001;SDS011;22913;51.910;8.374;2023-04-19T02:25:41;3.97;;;3.57;;
37001;SDS011;22913;51.910;8.374;2023-04-19T02:28:27;3.50;;;3.27;;
37001;SDS011;22913;51.910;8.374;2023-04-19T02:31:14;4.33;;;3.93;;
37001;SDS011;22913;51.910;8.374;2023-04-19T02:34:00;4.30;;;3.83;;
37001;SDS011;22913;51.910;8.374;2023-04-19T02:36:45;4.20;;;3.80;;
37001;SDS011;22913;51.910;8.374;2023-04-19T02:39:31;3.90;;;3.60;;
37001;SDS011;22913;51.910;8.374;2023-04-19T02:42:17;4.07;;;3.70;;
37001;SDS011;22913;51.910;8.374;2023-04-19T02:45:11;4.40;;;4.00;;
37001;SDS011;22913;51.910;8.374;2023-04-19T02:47:58;4.67;;;4.13;;
37001;SDS011;22913;51.910;8.374;2023-04-19T02:50:43;4.63;;;4.03;;
37001;SDS011;22913;51.910;8.374;2023-04-19T02:53:29;5.40;;;3.73;;
37001;SDS011;22913;51.910;8.374;2023-04-19T02:56:15;4.43;;;3.50;;
37001;SDS011;22913;51.910;8.374;2023-04-19T02:59:00;4.10;;;3.67;;
37001;SDS011;22913;51.910;8.374;2023-04-19T03:01:46;3.77;;;3.30;;
37001;SDS011;22913;51.910;8.374;2023-04-19T03:04:33;4.67;;;3.60;;
37001;SDS011;22913;51.910;8.374;2023-04-19T03:07:19;7.63;;;4.43;;
37001;SDS011;22913;51.910;8.374;2023-04-19T03:10:06;3.90;;;3.60;;
37001;SDS011;22913;51.910;8.374;2023-04-19T03:12:52;4.13;;;3.73;;
37001;SDS011;22913;51.910;8.374;2023-04-19T03:15:37;4.00;;;3.63;;
37001;SDS011;22913;51.910;8.374;2023-04-19T03:18:23;4.20;;;3.90;;
37001;SDS011;22913;51.910;8.374;2023-04-19T03:21:10;5.90;;;3.87;;
37001;SDS011;22913;51.910;8.374;2023-04-19T03:23:55;4.20;;;3.80;;
37001;SDS011;22913;51.910;8.374;2023-04-19T03:26:41;4.33;;;3.63;;
37001;SDS011;22913;51.910;8.374;2023-04-19T03:29:27;3.60;;;3.30;;
37001;SDS011;22913;51.910;8.374;2023-04-19T03:32:12;6.17;;;3.80;;
37001;SDS011;22913;51.910;8.374;2023-04-19T03:34:58;4.00;;;3.10;;
37001;SDS011;22913;51.910;8.374;2023-04-19T03:37:45;5.27;;;3.53;;
37001;SDS011;22913;51.910;8.374;2023-04-19T03:40:31;5.00;;;2.93;;
37001;SDS011;22913;51.910;8.374;2023-04-19T03:43:17;4.40;;;3.40;;
37001;SDS011;22913;51.910;8.374;2023-04-19T03:46:03;5.07;;;3.63;;
37001;SDS011;22913;51.910;8.374;2023-04-19T03:48:49;6.57;;;3.10;;
37001;SDS011;22913;51.910;8.374;2023-04-19T03:54:55;3.10;;;2.87;;
37001;SDS011;22913;51.910;8.374;2023-04-19T03:57:41;3.53;;;2.30;;
37001;SDS011;22913;51.910;8.374;2023-04-19T04:00:29;4.40;;;2.53;;
37001;SDS011;22913;51.910;8.374;2023-04-19T04:03:14;2.80;;;2.60;;
37001;SDS011;22913;51.910;8.374;2023-04-19T04:06:00;5.13;;;2.80;;
37001;SDS011;22913;51.910;8.374;2023-04-19T04:08:46;2.93;;;2.63;;
37001;SDS011;22913;51.910;8.374;2023-04-19T04:11:33;2.87;;;2.50;;
37001;SDS011;22913;51.910;8.374;2023-04-19T04:14:18;6.23;;;2.90;;
37001;SDS011;22913;51.910;8.374;2023-04-19T04:17:04;2.93;;;2.47;;
37001;SDS011;22913;51.910;8.374;2023-04-19T04:19:50;2.47;;;2.27;;
37001;SDS011;22913;51.910;8.374;2023-04-19T04:22:38;2.70;;;2.40;;
37001;SDS011;22913;51.910;8.374;2023-04-19T04:25:24;2.93;;;2.50;;
37001;SDS011;22913;51.910;8.374;2023-04-19T04:28:12;3.33;;;2.33;;
37001;SDS011;22913;51.910;8.374;2023-04-19T04:30:58;2.67;;;2.43;;
37001;SDS011;22913;51.910;8.374;2023-04-19T04:33:44;3.13;;;2.53;;
37001;SDS011;22913;51.910;8.374;2023-04-19T04:36:30;2.73;;;2.53;;
37001;SDS011;22913;51.910;8.374;2023-04-19T04:39:16;3.07;;;2.67;;
37001;SDS011;22913;51.910;8.374;2023-04-19T04:42:02;2.97;;;2.77;;
37001;SDS011;22913;51.910;8.374;2023-04-19T04:44:49;3.07;;;2.50;;
37001;SDS011;22913;51.910;8.374;2023-04-19T04:47:35;3.43;;;2.67;;
37001;SDS011;22913;51.910;8.374;2023-04-19T04:50:21;3.60;;;2.77;;
37001;SDS011;22913;51.910;8.374;2023-04-19T04:53:07;5.67;;;3.43;;
37001;SDS011;22913;51.910;8.374;2023-04-19T04:55:55;6.80;;;4.60;;
37001;SDS011;22913;51.910;8.374;2023-04-19T04:58:40;11.20;;;6.07;;
37001;SDS011;22913;51.910;8.374;2023-04-19T05:01:31;7.93;;;5.60;;
37001;SDS011;22913;51.910;8.374;2023-04-19T05:04:17;4.53;;;3.87;;
37001;SDS011;22913;51.910;8.374;2023-04-19T05:07:02;4.93;;;2.90;;
37001;SDS011;22913;51.910;8.374;2023-04-19T05:09:49;2.80;;;2.60;;
37001;SDS011;22913;51.910;8.374;2023-04-19T05:12:35;2.93;;;2.60;;
37001;SDS011;22913;51.910;8.374;2023-04-19T05:15:21;3.97;;;2.43;;
37001;SDS011;22913;51.910;8.374;2023-04-19T05:18:09;2.57;;;2.37;;
37001;SDS011;22913;51.910;8.374;2023-04-19T05:20:55;2.67;;;2.33;;
37001;SDS011;22913;51.910;8.374;2023-04-19T05:23:41;3.73;;;2.73;;
37001;SDS011;22913;51.910;8.374;2023-04-19T05:26:26;4.90;;;3.10;;
37001;SDS011;22913;51.910;8.374;2023-04-19T05:29:12;3.20;;;2.50;;
37001;SDS011;22913;51.910;8.374;2023-04-19T05:31:58;2.83;;;2.53;;
37001;SDS011;22913;51.910;8.374;2023-04-19T05:34:45;3.37;;;2.30;;
37001;SDS011;22913;51.910;8.374;2023-04-19T05:37:31;2.40;;;2.20;;
37001;SDS011;22913;51.910;8.374;2023-04-19T05:40:17;2.87;;;2.40;;
37001;SDS011;22913;51.910;8.374;2023-04-19T05:43:03;5.53;;;2.20;;
37001;SDS011;22913;51.910;8.374;2023-04-19T05:45:49;2.90;;;2.60;;
37001;SDS011;22913;51.910;8.374;2023-04-19T05:48:35;2.60;;;2.30;;
37001;SDS011;22913;51.910;8.374;2023-04-19T05:51:22;3.60;;;3.03;;
37001;SDS011;22913;51.910;8.374;2023-04-19T05:54:08;6.97;;;4.53;;
37001;SDS011;22913;51.910;8.374;2023-04-19T05:56:55;4.33;;;3.43;;
37001;SDS011;22913;51.910;8.374;2023-04-19T05:59:41;2.67;;;2.30;;
37001;SDS011;22913;51.910;8.374;2023-04-19T06:02:27;2.00;;;1.90;;
37001;SDS011;22913;51.910;8.374;2023-04-19T06:05:13;2.67;;;1.97;;
37001;SDS011;22913;51.910;8.374;2023-04-19T06:08:00;4.73;;;3.63;;
37001;SDS011;22913;51.910;8.374;2023-04-19T06:10:47;3.30;;;2.60;;
37001;SDS011;22913;51.910;8.374;2023-04-19T06:13:33;4.43;;;2.70;;
37001;SDS011;22913;51.910;8.374;2023-04-19T06:16:19;2.33;;;2.13;;
37001;SDS011;22913;51.910;8.374;2023-04-19T06:19:05;2.57;;;2.20;;
37001;SDS011;22913;51.910;8.374;2023-04-19T06:21:51;3.03;;;2.20;;
37001;SDS011;22913;51.910;8.374;2023-04-19T06:24:38;2.30;;;2.07;;
37001;SDS011;22913;51.910;8.374;2023-04-19T06:27:24;6.87;;;3.30;;
37001;SDS011;22913;51.910;8.374;2023-04-19T06:30:10;5.73;;;4.93;;
37001;SDS011;22913;51.910;8.374;2023-04-19T06:32:56;3.80;;;3.20;;
37001;SDS011;22913;51.910;8.374;2023-04-19T06:35:41;4.70;;;3.13;;
37001;SDS011;22913;51.910;8.374;2023-04-19T06:38:28;3.57;;;3.20;;
37001;SDS011;22913;51.910;8.374;2023-04-19T06:41:15;3.90;;;2.50;;
37001;SDS011;22913;51.910;8.374;2023-04-19T06:44:02;3.27;;;2.17;;
37001;SDS011;22913;51.910;8.374;2023-04-19T06:46:48;4.03;;;2.20;;
37001;SDS011;22913;51.910;8.374;2023-04-19T06:49:34;2.80;;;2.60;;
37001;SDS011;22913;51.910;8.374;2023-04-19T06:52:20;7.50;;;5.57;;
37001;SDS011;22913;51.910;8.374;2023-04-19T06:55:06;5.03;;;4.00;;
37001;SDS011;22913;51.910;8.374;2023-04-19T06:57:53;7.07;;;3.53;;
37001;SDS011;22913;51.910;8.374;2023-04-19T07:00:39;3.40;;;3.03;;
37001;SDS011;22913;51.910;8.374;2023-04-19T07:03:24;3.90;;;2.10;;
37001;SDS011;22913;51.910;8.374;2023-04-19T07:06:10;3.93;;;2.03;;
37001;SDS011;22913;51.910;8.374;2023-04-19T07:08:56;2.03;;;1.93;;
37001;SDS011;22913;51.910;8.374;2023-04-19T07:11:41;2.77;;;2.30;;
37001;SDS011;22913;51.910;8.374;2023-04-19T07:14:28;2.50;;;2.10;;
37001;SDS011;22913;51.910;8.374;2023-04-19T07:17:14;4.33;;;2.33;;
37001;SDS011;22913;51.910;8.374;2023-04-19T07:20:01;3.37;;;2.20;;
37001;SDS011;22913;51.910;8.374;2023-04-19T07:22:47;2.30;;;2.20;;
37001;SDS011;22913;51.910;8.374;2023-04-19T07:25:33;4.03;;;2.10;;
37001;SDS011;22913;51.910;8.374;2023-04-19T07:28:18;2.70;;;1.93;;
37001;SDS011;22913;51.910;8.374;2023-04-19T07:31:05;1.80;;;1.70;;
37001;SDS011;22913;51.910;8.374;2023-04-19T07:33:51;2.37;;;1.70;;
37001;SDS011;22913;51.910;8.374;2023-04-19T07:36:37;2.03;;;1.87;;
37001;SDS011;22913;51.910;8.374;2023-04-19T07:39:23;2.83;;;2.63;;
37001;SDS011;22913;51.910;8.374;2023-04-19T07:42:10;4.23;;;2.30;;
37001;SDS011;22913;51.910;8.374;2023-04-19T07:44:56;3.20;;;2.00;;
37001;SDS011;22913;51.910;8.374;2023-04-19T07:47:43;3.07;;;2.23;;
37001;SDS011;22913;51.910;8.374;2023-04-19T07:50:29;2.47;;;2.20;;
37001;SDS011;22913;51.910;8.374;2023-04-19T07:53:15;1.90;;;1.80;;
37001;SDS011;22913;51.910;8.374;2023-04-19T07:56:00;2.13;;;1.93;;
37001;SDS011;22913;51.910;8.374;2023-04-19T07:58:46;5.47;;;2.07;;
37001;SDS011;22913;51.910;8.374;2023-04-19T08:01:32;1.90;;;1.80;;
37001;SDS011;22913;51.910;8.374;2023-04-19T08:04:19;2.47;;;2.10;;
37001;SDS011;22913;51.910;8.374;2023-04-19T08:07:05;2.03;;;1.57;;
37001;SDS011;22913;51.910;8.374;2023-04-19T08:09:52;2.37;;;2.07;;
37001;SDS011;22913;51.910;8.374;2023-04-19T08:12:37;2.10;;;2.00;;
37001;SDS011;22913;51.910;8.374;2023-04-19T08:15:23;2.00;;;1.80;;
37001;SDS011;22913;51.910;8.374;2023-04-19T08:18:09;2.23;;;1.97;;
37001;SDS011;22913;51.910;8.374;2023-04-19T08:20:56;3.60;;;1.90;;
37001;SDS011;22913;51.910;8.374;2023-04-19T08:23:42;2.37;;;2.00;;
37001;SDS011;22913;51.910;8.374;2023-04-19T08:26:27;2.40;;;2.20;;
37001;SDS011;22913;51.910;8.374;2023-04-19T08:29:13;1.93;;;1.83;;
37001;SDS011;22913;51.910;8.374;2023-04-19T08:31:58;4.00;;;2.07;;
37001;SDS011;22913;51.910;8.374;2023-04-19T08:34:44;2.40;;;2.20;;
37001;SDS011;22913;51.910;8.374;2023-04-19T08:37:31;6.40;;;2.00;;
37001;SDS011;22913;51.910;8.374;2023-04-19T08:40:16;1.40;;;1.37;;
37001;SDS011;22913;51.910;8.374;2023-04-19T08:43:03;2.87;;;2.13;;
37001;SDS011;22913;51.910;8.374;2023-04-19T08:45:50;1.93;;;1.80;;
37001;SDS011;22913;51.910;8.374;2023-04-19T08:48:36;2.23;;;2.03;;
37001;SDS011;22913;51.910;8.374;2023-04-19T08:51:22;1.97;;;1.80;;
37001;SDS011;22913;51.910;8.374;2023-04-19T08:54:11;2.37;;;2.20;;
37001;SDS011;22913;51.910;8.374;2023-04-19T08:56:58;3.67;;;2.00;;
37001;SDS011;22913;51.910;8.374;2023-04-19T08:59:44;3.63;;;1.90;;
37001;SDS011;22913;51.910;8.374;2023-04-19T09:02:43;8.60;;;1.90;;
37001;SDS011;22913;51.910;8.374;2023-04-19T09:05:33;3.87;;;2.23;;
37001;SDS011;22913;51.910;8.374;2023-04-19T09:08:23;2.97;;;2.00;;
37001;SDS011;22913;51.910;8.374;2023-04-19T09:11:11;2.27;;;1.80;;
37001;SDS011;22913;51.910;8.374;2023-04-19T09:14:06;3.80;;;2.37;;
37001;SDS011;22913;51.910;8.374;2023-04-19T09:16:52;3.53;;;2.33;;
37001;SDS011;22913;51.910;8.374;2023-04-19T09:19:44;2.40;;;2.00;;
37001;SDS011;22913;51.910;8.374;2023-04-19T09:22:30;4.57;;;2.37;;
37001;SDS011;22913;51.910;8.374;2023-04-19T09:25:23;1.90;;;1.80;;
37001;SDS011;22913;51.910;8.374;2023-04-19T09:28:11;2.83;;;2.03;;
37001;SDS011;22913;51.910;8.374;2023-04-19T09:30:57;2.10;;;1.93;;
37001;SDS011;22913;51.910;8.374;2023-04-19T09:33:55;2.37;;;1.90;;
37001;SDS011;22913;51.910;8.374;2023-04-19T09:36:41;2.33;;;2.07;;
37001;SDS011;22913;51.910;8.374;2023-04-19T09:39:27;2.33;;;1.90;;
37001;SDS011;22913;51.910;8.374;2023-04-19T09:42:14;3.30;;;2.60;;
37001;SDS011;22913;51.910;8.374;2023-04-19T09:45:01;4.07;;;2.40;;
37001;SDS011;22913;51.910;8.374;2023-04-19T09:47:57;1.63;;;1.53;;
37001;SDS011;22913;51.910;8.374;2023-04-19T09:50:52;3.07;;;2.10;;
37001;SDS011;22913;51.910;8.374;2023-04-19T09:53:39;2.50;;;2.30;;
37001;SDS011;22913;51.910;8.374;2023-04-19T09:56:26;3.23;;;2.10;;
37001;SDS011;22913;51.910;8.374;2023-04-19T09:59:12;4.90;;;2.43;;
37001;SDS011;22913;51.910;8.374;2023-04-19T10:01:58;2.37;;;2.20;;
37001;SDS011;22913;51.910;8.374;2023-04-19T10:04:45;2.37;;;2.20;;
37001;SDS011;22913;51.910;8.374;2023-04-19T10:07:31;2.70;;;2.40;;
37001;SDS011;22913;51.910;8.374;2023-04-19T10:10:17;2.37;;;2.20;;
37001;SDS011;22913;51.910;8.374;2023-04-19T10:13:05;2.07;;;1.93;;
37001;SDS011;22913;51.910;8.374;2023-04-19T10:15:52;1.90;;;1.80;;
37001;SDS011;22913;51.910;8.374;2023-04-19T10:18:39;5.80;;;2.20;;
37001;SDS011;22913;51.910;8.374;2023-04-19T10:21:26;3.13;;;1.97;;
37001;SDS011;22913;51.910;8.374;2023-04-19T10:24:12;3.07;;;2.30;;
37001;SDS011;22913;51.910;8.374;2023-04-19T10:27:06;4.87;;;2.33;;
37001;SDS011;22913;51.910;8.374;2023-04-19T10:29:54;2.30;;;2.10;;
37001;SDS011;22913;51.910;8.374;2023-04-19T10:32:41;2.10;;;2.00;;
37001;SDS011;22913;51.910;8.374;2023-04-19T10:35:34;2.90;;;2.60;;
37001;SDS011;22913;51.910;8.374;2023-04-19T10:38:24;5.70;;;5.20;;
37001;SDS011;22913;51.910;8.374;2023-04-19T10:41:20;6.80;;;5.40;;
37001;SDS011;22913;51.910;8.374;2023-04-19T10:44:10;2.90;;;2.33;;
37001;SDS011;22913;51.910;8.374;2023-04-19T10:46:56;4.50;;;3.70;;
37001;SDS011;22913;51.910;8.374;2023-04-19T10:49:43;3.17;;;2.83;;
37001;SDS011;22913;51.910;8.374;2023-04-19T10:52:31;5.57;;;4.03;;
37001;SDS011;22913;51.910;8.374;2023-04-19T10:55:17;3.97;;;3.57;;
37001;SDS011;22913;51.910;8.374;2023-04-19T10:58:03;3.10;;;2.80;;
37001;SDS011;22913;51.910;8.374;2023-04-19T11:00:50;3.77;;;2.93;;
37001;SDS011;22913;51.910;8.374;2023-04-19T11:03:56;2.87;;;2.03;;
37001;SDS011;22913;51.910;8.374;2023-04-19T11:06:55;3.00;;;2.33;;
37001;SDS011;22913;51.910;8.374;2023-04-19T11:09:45;2.57;;;2.37;;
37001;SDS011;22913;51.910;8.374;2023-04-19T11:12:34;2.40;;;2.20;;
37001;SDS011;22913;51.910;8.374;2023-04-19T11:15:20;2.30;;;1.90;;
37001;SDS011;22913;51.910;8.374;2023-04-19T11:18:06;2.13;;;1.97;;
37001;SDS011;22913;51.910;8.374;2023-04-19T11:20:52;2.57;;;2.13;;
37001;SDS011;22913;51.910;8.374;2023-04-19T11:23:38;2.40;;;2.20;;
37001;SDS011;22913;51.910;8.374;2023-04-19T11:26:25;5.83;;;3.60;;
37001;SDS011;22913;51.910;8.374;2023-04-19T11:29:11;2.53;;;2.33;;
37001;SDS011;22913;51.910;8.374;2023-04-19T11:31:58;2.77;;;1.77;;
37001;SDS011;22913;51.910;8.374;2023-04-19T11:34:44;2.33;;;2.23;;
37001;SDS011;22913;51.910;8.374;2023-04-19T11:37:31;2.40;;;2.20;;
37001;SDS011;22913;51.910;8.374;2023-04-19T11:40:18;2.40;;;2.20;;
37001;SDS011;22913;51.910;8.374;2023-04-19T11:43:06;3.43;;;1.87;;
37001;SDS011;22913;51.910;8.374;2023-04-19T11:45:51;2.10;;;2.00;;
37001;SDS011;22913;51.910;8.374;2023-04-19T11:48:38;4.77;;;2.00;;
37001;SDS011;22913;51.910;8.374;2023-04-19T11:51:34;2.03;;;1.77;;
37001;SDS011;22913;51.910;8.374;2023-04-19T11:54:19;2.70;;;2.07;;
37001;SDS011;22913;51.910;8.374;2023-04-19T11:57:07;2.37;;;2.17;;
37001;SDS011;22913;51.910;8.374;2023-04-19T12:00:04;2.10;;;2.00;;
37001;SDS011;22913;51.910;8.374;2023-04-19T12:02:54;2.07;;;1.97;;
37001;SDS011;22913;51.910;8.374;2023-04-19T12:05:39;2.20;;;2.00;;
37001;SDS011;22913;51.910;8.374;2023-04-19T12:08:36;2.00;;;1.90;;
37001;SDS011;22913;51.910;8.374;2023-04-19T12:11:24;2.73;;;1.97;;
37001;SDS011;22913;51.910;8.374;2023-04-19T12:14:11;2.17;;;2.07;;
37001;SDS011;22913;51.910;8.374;2023-04-19T12:17:06;1.80;;;1.70;;
37001;SDS011;22913;51.910;8.374;2023-04-19T12:19:56;2.03;;;1.90;;
37001;SDS011;22913;51.910;8.374;2023-04-19T12:22:42;3.00;;;1.87;;
37001;SDS011;22913;51.910;8.374;2023-04-19T12:25:28;2.20;;;2.10;;
37001;SDS011;22913;51.910;8.374;2023-04-19T12:28:14;4.13;;;1.97;;
37001;SDS011;22913;51.910;8.374;2023-04-19T12:31:00;4.60;;;3.87;;
37001;SDS011;22913;51.910;8.374;2023-04-19T12:33:47;2.77;;;2.37;;
37001;SDS011;22913;51.910;8.374;2023-04-19T12:36:33;3.03;;;2.83;;
37001;SDS011;22913;51.910;8.374;2023-04-19T12:39:19;3.70;;;2.33;;
37001;SDS011;22913;51.910;8.374;2023-04-19T12:42:04;2.33;;;1.80;;
37001;SDS011;22913;51.910;8.374;2023-04-19T12:44:50;2.30;;;1.80;;
37001;SDS011;22913;51.910;8.374;2023-04-19T12:47:36;2.40;;;1.70;;
37001;SDS011;22913;51.910;8.374;2023-04-19T12:50:23;2.70;;;1.87;;
37001;SDS011;22913;51.910;8.374;2023-04-19T12:53:08;2.83;;;1.80;;
37001;SDS011;22913;51.910;8.374;2023-04-19T12:55:54;3.57;;;1.70;;
37001;SDS011;22913;51.910;8.374;2023-04-19T12:58:40;1.63;;;1.53;;
37001;SDS011;22913;51.910;8.374;2023-04-19T13:01:25;2.20;;;2.00;;
37001;SDS011;22913;51.910;8.374;2023-04-19T13:04:11;3.00;;;1.57;;
37001;SDS011;22913;51.910;8.374;2023-04-19T13:06:58;1.80;;;1.53;;
37001;SDS011;22913;51.910;8.374;2023-04-19T13:09:44;1.87;;;1.77;;
37001;SDS011;22913;51.910;8.374;2023-04-19T13:12:29;1.90;;;1.80;;
37001;SDS011;22913;51.910;8.374;2023-04-19T13:15:15;1.90;;;1.70;;
37001;SDS011;22913;51.910;8.374;2023-04-19T13:18:01;1.70;;;1.60;;
37001;SDS011;22913;51.910;8.374;2023-04-19T13:20:46;1.70;;;1.40;;
37001;SDS011;22913;51.910;8.374;2023-04-19T13:23:34;2.93;;;1.57;;
37001;SDS011;22913;51.910;8.374;2023-04-19T13:26:20;1.70;;;1.60;;
37001;SDS011;22913;51.910;8.374;2023-04-19T13:29:06;1.80;;;1.47;;
37001;SDS011;22913;51.910;8.374;2023-04-19T13:31:52;2.73;;;1.60;;
37001;SDS011;22913;51.910;8.374;2023-04-19T13:34:38;3.63;;;1.60;;
37001;SDS011;22913;51.910;8.374;2023-04-19T13:37:24;3.80;;;1.50;;
37001;SDS011;22913;51.910;8.374;2023-04-19T13:40:11;2.27;;;1.77;;
37001;SDS011;22913;51.910;8.374;2023-04-19T13:42:57;1.30;;;1.30;;
37001;SDS011;22913;51.910;8.374;2023-04-19T13:45:42;1.70;;;1.60;;
37001;SDS011;22913;51.910;8.374;2023-04-19T13:48:28;1.57;;;1.47;;
37001;SDS011;22913;51.910;8.374;2023-04-19T13:51:14;2.10;;;1.97;;
37001;SDS011;22913;51.910;8.374;2023-04-19T13:53:59;2.20;;;1.67;;
37001;SDS011;22913;51.910;8.374;2023-04-19T13:56:46;2.83;;;1.70;;
37001;SDS011;22913;51.910;8.374;2023-04-19T13:59:32;1.83;;;1.73;;
37001;SDS011;22913;51.910;8.374;2023-04-19T14:02:17;1.77;;;1.67;;
37001;SDS011;22913;51.910;8.374;2023-04-19T14:05:04;2.23;;;1.67;;
37001;SDS011;22913;51.910;8.374;2023-04-19T14:07:50;1.77;;;1.60;;
37001;SDS011;22913;51.910;8.374;2023-04-19T14:10:36;2.63;;;1.50;;
37001;SDS011;22913;51.910;8.374;2023-04-19T14:13:24;1.90;;;1.60;;
37001;SDS011;22913;51.910;8.374;2023-04-19T14:16:10;4.93;;;1.53;;
37001;SDS011;22913;51.910;8.374;2023-04-19T14:18:56;1.63;;;1.53;;
37001;SDS011;22913;51.910;8.374;2023-04-19T14:21:42;3.90;;;1.60;;
37001;SDS011;22913;51.910;8.374;2023-04-19T14:24:28;2.47;;;1.70;;
37001;SDS011;22913;51.910;8.374;2023-04-19T14:27:13;1.80;;;1.70;;
37001;SDS011;22913;51.910;8.374;2023-04-19T14:30:00;1.80;;;1.70;;
37001;SDS011;22913;51.910;8.374;2023-04-19T14:32:46;1.67;;;1.57;;
37001;SDS011;22913;51.910;8.374;2023-04-19T14:35:31;1.87;;;1.77;;
37001;SDS011;22913;51.910;8.374;2023-04-19T14:38:17;3.23;;;1.83;;
37001;SDS011;22913;51.910;8.374;2023-04-19T14:41:03;1.77;;;1.70;;
37001;SDS011;22913;51.910;8.374;2023-04-19T14:43:49;2.00;;;1.90;;
37001;SDS011;22913;51.910;8.374;2023-04-19T14:46:37;2.00;;;1.90;;
37001;SDS011;22913;51.910;8.374;2023-04-19T14:49:22;1.90;;;1.80;;
37001;SDS011;22913;51.910;8.374;2023-04-19T14:52:08;2.00;;;1.80;;
37001;SDS011;22913;51.910;8.374;2023-04-19T14:54:54;1.97;;;1.87;;
37001;SDS011;22913;51.910;8.374;2023-04-19T14:57:40;1.97;;;1.80;;
37001;SDS011;22913;51.910;8.374;2023-04-19T15:00:26;4.27;;;2.13;;
37001;SDS011;22913;51.910;8.374;2023-04-19T15:03:13;2.67;;;2.17;;
37001;SDS011;22913;51.910;8.374;2023-04-19T15:05:59;3.00;;;1.77;;
37001;SDS011;22913;51.910;8.374;2023-04-19T15:08:46;1.90;;;1.80;;
37001;SDS011;22913;51.910;8.374;2023-04-19T15:11:32;1.70;;;1.60;;
37001;SDS011;22913;51.910;8.374;2023-04-19T15:14:17;2.23;;;2.07;;
37001;SDS011;22913;51.910;8.374;2023-04-19T15:17:03;1.53;;;1.50;;
37001;SDS011;22913;51.910;8.374;2023-04-19T15:19:51;2.93;;;1.77;;
37001;SDS011;22913;51.910;8.374;2023-04-19T15:22:36;2.37;;;2.17;;
37001;SDS011;22913;51.910;8.374;2023-04-19T15:25:22;3.27;;;2.00;;
37001;SDS011;22913;51.910;8.374;2023-04-19T15:28:08;2.17;;;2.03;;
37001;SDS011;22913;51.910;8.374;2023-04-19T15:30:57;2.30;;;2.00;;
37001;SDS011;22913;51.910;8.374;2023-04-19T15:33:44;2.87;;;2.30;;
37001;SDS011;22913;51.910;8.374;2023-04-19T15:36:31;2.10;;;1.90;;
37001;SDS011;22913;51.910;8.374;2023-04-19T15:39:17;2.53;;;1.90;;
37001;SDS011;22913;51.910;8.374;2023-04-19T15:42:02;2.37;;;2.17;;
37001;SDS011;22913;51.910;8.374;2023-04-19T15:44:48;4.63;;;2.30;;
37001;SDS011;22913;51.910;8.374;2023-04-19T15:47:34;2.60;;;2.37;;
37001;SDS011;22913;51.910;8.374;2023-04-19T15:50:20;3.00;;;1.90;;
37001;SDS011;22913;51.910;8.374;2023-04-19T15:53:07;3.27;;;2.03;;
37001;SDS011;22913;51.910;8.374;2023-04-19T15:55:53;2.50;;;2.30;;
37001;SDS011;22913;51.910;8.374;2023-04-19T15:58:40;3.03;;;2.00;;
37001;SDS011;22913;51.910;8.374;2023-04-19T16:01:25;2.20;;;2.00;;
37001;SDS011;22913;51.910;8.374;2023-04-19T16:04:11;2.53;;;2.30;;
37001;SDS011;22913;51.910;8.374;2023-04-19T16:06:57;3.83;;;2.07;;
37001;SDS011;22913;51.910;8.374;2023-04-19T16:09:44;3.63;;;2.37;;
37001;SDS011;22913;51.910;8.374;2023-04-19T16:12:30;3.67;;;2.07;;
37001;SDS011;22913;51.910;8.374;2023-04-19T16:15:16;6.67;;;2.40;;
37001;SDS011;22913;51.910;8.374;2023-04-19T16:18:01;2.57;;;2.40;;
37001;SDS011;22913;51.910;8.374;2023-04-19T16:20:47;2.60;;;2.10;;
37001;SDS011;22913;51.910;8.374;2023-04-19T16:23:32;4.17;;;2.60;;
37001;SDS011;22913;51.910;8.374;2023-04-19T16:26:20;2.30;;;2.10;;
37001;SDS011;22913;51.910;8.374;2023-04-19T16:29:06;2.90;;;2.53;;
37001;SDS011;22913;51.910;8.374;2023-04-19T16:31:51;2.40;;;2.20;;
37001;SDS011;22913;51.910;8.374;2023-04-19T16:34:37;3.47;;;2.10;;
37001;SDS011;22913;51.910;8.374;2023-04-19T16:37:23;2.30;;;2.10;;
37001;SDS011;22913;51.910;8.374;2023-04-19T16:40:09;2.87;;;2.63;;
37001;SDS011;22913;51.910;8.374;2023-04-19T16:42:56;2.40;;;2.20;;
37001;SDS011;22913;51.910;8.374;2023-04-19T16:45:41;2.40;;;2.17;;
37001;SDS011;22913;51.910;8.374;2023-04-19T16:48:27;2.50;;;2.30;;